PWSweather.com
Personal Weather Stations
Station Observations
STPETERS
BroadstairsGB

BroadstairsGB

Lat: 51.37, Lon: 1.423

Elevation: 141

Station Type: WH1081

Latest ConditionsUpdated 7:00:01 AM GMT Saturday, Oct 25, 2014
Currently Today's Max Today's Min Today's Average
Temperature 48.9°F9.4°C 57.2°F14.0°C 48.9°F9.4°C 52.3°F11.3°C
Dew Point 47.0°F8.3°C 55.2°F12.9°C 47.0°F8.3°C 50.4°F10.2°C
Winds 2.9 mph WNW4.7 kmh WNW 4.2 mph NW6.8 kmh NW - 2.4 mph 3.9 kmh
Wind Gusts 3.8 mph6.1 kmh 6.9 mph11.1 kmh - -
Humidity 93% 93% 93% 93%
Pressure 30.04 in1017.3 mb 30.04 in1017.3 mb 29.97 in1014.9 mb -
Hour Temp Dew Point Humidity Winds Wind Gusts Pressure Precip Precip Rate Daily Precip Total
07:00 AM 48.9°F9.4°C 47.0°F8.3°C 93% 2.9 mph WNW4.7 kmh WNW 3.8 mph6.1 kmh 30.04 in1017.3 mb 0.00 in0.0 mm 0.00 in/hr0.0 mm/hr 0.00 in0.0 mm
06:45 AM 49.1°F9.5°C 47.2°F8.4°C 93% 3.2 mph W5.1 kmh W 4.5 mph7.2 kmh 30.03 in1016.9 mb 0.00 in0.0 mm 0.00 in/hr0.0 mm/hr 0.00 in0.0 mm
06:30 AM 49.5°F9.7°C 47.5°F8.6°C 93% 3.7 mph W6.0 kmh W 5.4 mph8.7 kmh 30.03 in1016.9 mb 0.00 in0.0 mm 0.00 in/hr0.0 mm/hr 0.00 in0.0 mm
06:15 AM 49.1°F9.5°C 47.2°F8.4°C 93% 2.7 mph NW4.3 kmh NW 4.5 mph7.2 kmh 30.02 in1016.6 mb 0.00 in0.0 mm 0.00 in/hr0.0 mm/hr 0.00 in0.0 mm
06:00 AM 49.6°F9.8°C 47.7°F8.7°C 93% 2.4 mph NW3.9 kmh NW 3.8 mph6.1 kmh 30.02 in1016.6 mb 0.00 in0.0 mm 0.00 in/hr0.0 mm/hr 0.00 in0.0 mm
05:45 AM 49.6°F9.8°C 47.7°F8.7°C 93% 3.3 mph NW5.3 kmh NW 4.5 mph7.2 kmh 30.02 in1016.6 mb 0.00 in0.0 mm 0.00 in/hr0.0 mm/hr 0.00 in0.0 mm
05:30 AM 50.0°F10.0°C 48.1°F8.9°C 93% 2.7 mph NW4.3 kmh NW 3.8 mph6.1 kmh 30.01 in1016.3 mb 0.00 in0.0 mm 0.00 in/hr0.0 mm/hr 0.00 in0.0 mm
05:15 AM 50.5°F10.3°C 48.6°F9.2°C 93% 3.0 mph NW4.8 kmh NW 4.5 mph7.2 kmh 30.01 in1016.3 mb 0.00 in0.0 mm 0.00 in/hr0.0 mm/hr 0.00 in0.0 mm
05:00 AM 51.1°F10.6°C 49.1°F9.5°C 93% 3.3 mph NW5.3 kmh NW 3.8 mph6.1 kmh 30.00 in1015.9 mb 0.00 in0.0 mm 0.00 in/hr0.0 mm/hr 0.00 in0.0 mm
04:45 AM 51.1°F10.6°C 49.1°F9.5°C 93% 2.9 mph NW4.7 kmh NW 3.8 mph6.1 kmh 30.00 in1015.9 mb 0.00 in0.0 mm 0.00 in/hr0.0 mm/hr 0.00 in0.0 mm
04:30 AM 51.3°F10.7°C 49.3°F9.6°C 93% 1.8 mph NNW2.9 kmh NNW 3.1 mph5.0 kmh 30.00 in1015.9 mb 0.00 in0.0 mm 0.00 in/hr0.0 mm/hr 0.00 in0.0 mm
04:15 AM 51.1°F10.6°C 49.1°F9.5°C 93% 1.6 mph NNW2.6 kmh NNW 3.1 mph5.0 kmh 30.00 in1015.9 mb 0.00 in0.0 mm 0.00 in/hr0.0 mm/hr 0.00 in0.0 mm
04:00 AM 50.9°F10.5°C 49.0°F9.4°C 93% 1.2 mph NNW1.9 kmh NNW 4.5 mph7.2 kmh 29.99 in1015.6 mb 0.00 in0.0 mm 0.00 in/hr0.0 mm/hr 0.00 in0.0 mm
03:45 AM 51.4°F10.8°C 49.5°F9.7°C 93% 0.6 mph N1.0 kmh N 1.6 mph2.6 kmh 30.00 in1015.9 mb 0.00 in0.0 mm 0.00 in/hr0.0 mm/hr 0.00 in0.0 mm
03:30 AM 52.0°F11.1°C 50.0°F10.0°C 93% 0.2 mph N0.3 kmh N 0.7 mph1.1 kmh 29.99 in1015.6 mb 0.00 in0.0 mm 0.00 in/hr0.0 mm/hr 0.00 in0.0 mm
03:15 AM 52.7°F11.5°C 50.7°F10.4°C 93% 1.1 mph NW1.8 kmh NW 1.6 mph2.6 kmh 29.99 in1015.6 mb 0.00 in0.0 mm 0.00 in/hr0.0 mm/hr 0.00 in0.0 mm
03:00 AM 53.8°F12.1°C 51.8°F11.0°C 93% 2.0 mph WSW3.2 kmh WSW 3.1 mph5.0 kmh 29.99 in1015.6 mb 0.00 in0.0 mm 0.00 in/hr0.0 mm/hr 0.00 in0.0 mm
02:45 AM 54.3°F12.4°C 52.3°F11.3°C 93% 3.2 mph NW5.1 kmh NW 4.5 mph7.2 kmh 29.98 in1015.2 mb 0.00 in0.0 mm 0.00 in/hr0.0 mm/hr 0.00 in0.0 mm
02:30 AM 52.7°F11.5°C 50.7°F10.4°C 93% 4.2 mph NW6.8 kmh NW 6.9 mph11.1 kmh 29.98 in1015.2 mb 0.00 in0.0 mm 0.00 in/hr0.0 mm/hr 0.00 in0.0 mm
02:15 AM 54.1°F12.3°C 52.2°F11.2°C 93% 3.8 mph NW6.1 kmh NW 6.0 mph9.7 kmh 29.98 in1015.2 mb 0.00 in0.0 mm 0.00 in/hr0.0 mm/hr 0.00 in0.0 mm
02:00 AM 53.4°F11.9°C 51.5°F10.8°C 93% 3.0 mph WNW4.8 kmh WNW 4.5 mph7.2 kmh 29.98 in1015.2 mb 0.00 in0.0 mm 0.00 in/hr0.0 mm/hr 0.00 in0.0 mm
01:45 AM 52.9°F11.6°C 50.9°F10.5°C 93% 2.3 mph W3.7 kmh W 5.4 mph8.7 kmh 29.98 in1015.2 mb 0.00 in0.0 mm 0.00 in/hr0.0 mm/hr 0.00 in0.0 mm
01:30 AM 53.4°F11.9°C 51.5°F10.8°C 93% 0.7 mph WSW1.1 kmh WSW 1.6 mph2.6 kmh 29.98 in1015.2 mb 0.00 in0.0 mm 0.00 in/hr0.0 mm/hr 0.00 in0.0 mm
01:15 AM 54.0°F12.2°C 52.0°F11.1°C 93% 1.6 mph WNW2.6 kmh WNW 2.2 mph3.5 kmh 29.98 in1015.2 mb 0.00 in0.0 mm 0.00 in/hr0.0 mm/hr 0.00 in0.0 mm
01:00 AM 54.7°F12.6°C 52.7°F11.5°C 93% 1.1 mph W1.8 kmh W 2.2 mph3.5 kmh 29.97 in1014.9 mb 0.00 in0.0 mm 0.00 in/hr0.0 mm/hr 0.00 in0.0 mm
12:45 AM 55.8°F13.2°C 53.8°F12.1°C 93% 1.7 mph W2.7 kmh W 2.2 mph3.5 kmh 29.97 in1014.9 mb 0.00 in0.0 mm 0.00 in/hr0.0 mm/hr 0.00 in0.0 mm
12:30 AM 56.5°F13.6°C 54.5°F12.5°C 93% 2.4 mph NW3.9 kmh NW 3.1 mph5.0 kmh 29.97 in1014.9 mb 0.00 in0.0 mm 0.00 in/hr0.0 mm/hr 0.00 in0.0 mm
12:15 AM 57.0°F13.9°C 55.0°F12.8°C 93% 2.1 mph NW3.4 kmh NW 3.1 mph5.0 kmh 29.97 in1014.9 mb 0.00 in0.0 mm 0.00 in/hr0.0 mm/hr 0.00 in0.0 mm
12:00 AM 57.2°F14.0°C 55.2°F12.9°C 93% 3.5 mph NW5.6 kmh NW 4.5 mph7.2 kmh 29.97 in1014.9 mb 0.00 in0.0 mm 0.00 in/hr0.0 mm/hr 0.00 in0.0 mm